aviador You're here:

KHWV Decoded Metar

SHIRLEY in NY, USA
Report Time2018-05-25 19:56:00
UTC Time2018-05-25 20:42:52
Flight Rules vfr VFR
Wind220° at 14 Gusting to 21 kt
W.Decomp.*RWY 24: 13.9 kt HW 1.5 kt LCW
RWY 15: 1.5 kt HW 13.9 kt RCW
W.Rank220° ranks 4
Current wind is above 220° avg. (7.5)
Visibility9999 m
Phenomena:N/A
Clouds:N/A
Expected CloudBase > 2,800 ft AGL from Temp-Dew spread
CeilingNone
Temp23°C (ISA +8)
Dew Point16°C (65% RH)
AAT20.0°C
QNH1013 hPa
Density Alt1,257 ft
Elevation69 ft
Report Wrong Elevation
Raw Report
KHWV 251956Z AUTO 22014G21KT 10SM CLR 23/16 A2990 RMK AO2 SLP125
T02330156=

Extra information for KHWV:More info

Metar Taf Metar & Taf Last 4 Metars F.Rules Stats Wind Profile Meteogram Temp Stats Airport Information Weather charts Add Link Nearby VenuesMetar ALERT Operation Metar Decoded Social comments

AIRNAV info for KHWV